PAKTPAGY

Guest
Details From PAKT - KETCHIKAN INTL
To PAGY - SKAGWAY
Flight Number -
Tags generated
Created
Modified
Stats Distance 275 nm / 509 km
Max Altitude 32,500 ft / 9,906 m
Waypoints 4
Social Downloads 0
Likes 0
Share VATSIM

Download

Looking for another format? Having issues loading an existing format? Contact us
Advertisement - Login to hide

Notes

Basic altitude profile: - Ascent Rate: 2500ft/min - Ascent Speed: 250kts - Cruise Altitude: 35000ft - Cruise Speed: 420kts - Descent Rate: 1500ft/min - Descent Speed: 250kts Options: - Use NATs: yes - Use PACOTS: yes - Use low airways: yes - Use high airways: no

Route

PAKT FPN T266 CGL PAGY

ID Type Via Altitude Latitude Longitude Leg Dist Tot Dist Heading (true) Name
O PAKT APT - 0 ft / 0 m 55.35554˚ -131.71374˚ - 0 nm - KETCHIKAN INTL
FPN NDB - 32,500 ft / 9,906 m 56.79225˚ -132.82097˚ 93 nm 93 nm 337° / 336° FREDERICKS POINT NDB
CGL NDB T266 (AWY-LO) 14,700 ft / 4,481 m 58.35933˚ -134.69944˚ 111 nm 205 nm 328° / 326° COGHLAN ISLAND NDB
O PAGY APT - 0 ft / 0 m 59.46006˚ -135.31566˚ 68 nm 274 nm 344° / 344° SKAGWAY

Altitude Profile

Advertisement - Login to hide

Weather


0- 5 10 15 20 25 30 35+ Temperature / ° C

Clouds and Precipitation
Forecast for 2018-05-27 12:00 UTC. Updated 5 hours ago

Ground ~20,000 ft ~40,000 ft Winds

PAKT

Details ICAO PAKT (KTN)
Name KETCHIKAN INTL
Region USA (Alaska)
Timezone Unknown (UTC+0.0)
Stats Elevation 88 ft / 27 m (AMSL)
Location 55.355545° -131.713737°
Runways 1
Magnetic Variation 18.426° E

METAR

PAKT 271553Z 14006KT 10SM -RA SCT015 BKN041 OVC055 09/06 A2993

Decode

TAF

PAKT 271124Z 2712/2812 14007KT P6SM -RA OVC050 FM272000 13008KT 5SM -SHRA BR OVC025 FM280000 15008KT 4SM -RA BR BKN015 OVC025 FM280900 14007KT 6SM -RA BR SCT015 OVC025 AMD LTD TO CLD VIS AND WIND 2712/2715

Decode

Departure Runways

ID Width Length Bearing (true) Bearing (mag) Surface Threshold Offset Overrun Length
11 150 ft / 46 m 7,485 ft / 2,281 m 135.66° 117.23° Asphalt 0 ft / 0 m 200 ft / 61 m
29 150 ft / 46 m 7,485 ft / 2,281 m 315.68° 297.25° Asphalt 0 ft / 0 m 100 ft / 30 m

PAGY

Details ICAO PAGY (SGY)
Name SKAGWAY
Region USA (Alaska)
Timezone America/Juneau (UTC-8.0)
Stats Elevation 44 ft / 13 m (AMSL)
Location 59.460062° -135.315661°
Runways 1
Magnetic Variation 19.209° E

METAR

PAGY 271553Z AUTO 00000KT 10SM FEW028 BKN037 OVC044 08/05 A2980 RMK AO2 RAE52 SLP092 P0001 T00780050 TSNO

Decode

TAF

PAGY 271124Z 2712/2812 21007KT P6SM VCSH SCT016 BKN040 OVC060 TEMPO 2712/2716 21014KT -SHRA BKN010 OVC027 FM271800 21012G22KT P6SM -SHRA SCT040 OVC060 FM280000 21012G22KT P6SM VCSH OVC060 FM280600 21007KT P6SM VCSH OVC050 AMD LTD TO CLD VIS AND WIND

Decode

Destination Runways

ID Width Length Bearing (true) Bearing (mag) Surface Threshold Offset Overrun Length
02 75 ft / 23 m 3,542 ft / 1,080 m 43.94° 24.73° Asphalt 0 ft / 0 m 299 ft / 91 m
20 75 ft / 23 m 3,542 ft / 1,080 m 223.95° 204.74° Asphalt 0 ft / 0 m 299 ft / 91 m

Popular Alternatives